Current Weather

Poliarny

Poliarny, Russia (UERP)

Report from: Tuesday, March 5, 2024 7:30 AM +08
Current time: Tuesday, March 5, 2024 7:47 AM +08

Nearby weather – Weather history – Daily summaries
Weather forecast

Temperature-19.0°C (-2.2°F)
Dew point-21.0°C (-5.8°F)
Winds 1.9 kts (1 m/s, 2.2 mph) West-Northwest (300°)
Clouds Sky clear
Altimeter29.85 in.Hg (1011 mB)
Precip. events QF 5:54 PM
Relative humidity84 %
Density altitude-4,242 ft. (-1,293 m)
Remarks Ceiling and visibility OK
No significant changes expected in the next two hours
Flight conditions Visual Meteorological Conditions
Raw dataUERP 042330Z 30001MPS CAVOK M19/M21 Q1011 R35/390038 NOSIG RMK QFE714
An error has occurred. This application may no longer respond until reloaded. Reload 🗙